Independence of the Seas — C6WW4 — position and weather

sailwx.info

Track history (hours):
 
Tides and Currents Weather Stations Pressure Air Temp Water Temp Dewpoint Dewpoint Depression Visibility Wind Speed Wind Dir Waves Ship Positions

Independence of the Seas

Last reported at 2018-Jul-22 01:22 UTC. Time now 2018-Jul-22 03:22 UTC.
Position N 42°55' E 007°04'.

; draft 9 m.

Type: Passenger vessel. MMSI: 309374000.

Date/timePositionNaut miles runAvg speedWind from/ knotsBaromVisibWave heightAir tempDewpointWater temp
2018-Jul-22 01:22N 42°55' E 007°04'719.3
2018-Jul-22 01:01N 42°56' E 007°13'1519.1
2018-Jul-22 00:13N 42°58' E 007°34'2218.8
2018-Jul-21 23:03N 43°04' E 008°03'818.7
2018-Jul-21 22:37N 43°07' E 008°13'218.6
2018-Jul-21 22:29N 43°07' E 008°16'1618.8
2018-Jul-21 21:39N 43°12' E 008°37'318.9
2018-Jul-21 21:30N 43°13' E 008°40'918.7
2018-Jul-21 21:01N 43°17' E 008°52'918.8
2018-Jul-21 20:31N 43°20' E 009°04'918.5
2018-Jul-21 20:00N 43°23' E 009°16'918.7
2018-Jul-21 19:31N 43°26' E 009°28'918.5
2018-Jul-21 19:01N 43°29' E 009°40'918.7
2018-Jul-21 18:30N 43°32' E 009°53'918.1
2018-Jul-21 18:00N 43°30' E 010°05'815.2
2018-Jul-21 17:30N 43°32' E 010°15'2 4.4
2018-Jul-21 16:59N 43°33' E 010°18'0 0.0
2018-Jul-21 16:17N 43°33' E 010°18'0 0.0
2018-Jul-21 15:35N 43°33' E 010°18'0 0.0
2018-Jul-21 15:29N 43°33' E 010°18'0 0.0
2018-Jul-21 14:59N 43°33' E 010°18'0 0.0
2018-Jul-21 14:29N 43°33' E 010°18'0 0.0
2018-Jul-21 13:53N 43°33' E 010°18'0 0.0
2018-Jul-21 13:29N 43°33' E 010°18'0 0.0
2018-Jul-21 12:59N 43°33' E 010°18'0 0.0
2018-Jul-21 12:26N 43°33' E 010°18'0 0.0
2018-Jul-21 11:59N 43°33' E 010°18'0 0.0
2018-Jul-21 11:26N 43°33' E 010°18'0 0.0
2018-Jul-21 10:59N 43°33' E 010°18'0 0.0
2018-Jul-21 10:29N 43°33' E 010°18'0 0.0
2018-Jul-21 09:59N 43°33' E 010°18'0 0.0
2018-Jul-21 09:29N 43°33' E 010°18'0 0.0
2018-Jul-21 08:59N 43°33' E 010°18'0 0.0
2018-Jul-21 08:29N 43°33' E 010°18'0 0.0
2018-Jul-21 07:59N 43°33' E 010°18'0 0.0
2018-Jul-21 07:29N 43°33' E 010°18'0 0.0
2018-Jul-21 06:56N 43°33' E 010°18'0 0.0
2018-Jul-21 06:29N 43°33' E 010°18'0 0.0
2018-Jul-21 05:59N 43°33' E 010°18'0 0.0
2018-Jul-21 05:29N 43°33' E 010°18'0 0.0
2018-Jul-21 04:59N 43°33' E 010°18'0 0.3
2018-Jul-21 04:30N 43°33' E 010°18'3 5.0
2018-Jul-21 04:00N 43°31' E 010°15'611.0
2018-Jul-21 03:30N 43°26' E 010°13'612.8
2018-Jul-21 03:00N 43°20' E 010°11'713.1
2018-Jul-21 02:30N 43°14' E 010°09'713.7
2018-Jul-21 02:00N 43°07' E 010°07'815.4
2018-Jul-21 01:30N 42°59' E 010°05'1215.5
2018-Jul-21 00:43N 42°47' E 010°01'715.4
2018-Jul-21 00:17N 42°42' E 010°06'1015.2
2018-Jul-20 23:39N 42°34' E 010°15'515.6
2018-Jul-20 23:21N 42°31' E 010°19'615.4
2018-Jul-20 22:56N 42°26' E 010°24'614.8
2018-Jul-20 22:30N 42°20' E 010°28'815.2
2018-Jul-20 22:00N 42°13' E 010°30'715.0
2018-Jul-20 21:31N 42°05' E 010°31'714.5
2018-Jul-20 21:00N 42°01' E 010°39'815.4
2018-Jul-20 20:30N 41°59' E 010°49'815.0
2018-Jul-20 19:59N 41°58' E 010°60'714.6
2018-Jul-20 19:30N 41°56' E 011°09'714.1
2018-Jul-20 19:00N 41°56' E 011°18'714.4
2018-Jul-20 18:30N 41°59' E 011°27'714.8
2018-Jul-20 18:00N 42°03' E 011°35'2 0.1
2018-Jul-20 03:21N 42°04' E 011°33'718.9
2018-Jul-20 03:00N 42°05' E 011°24'816.6
2018-Jul-20 02:30N 42°06' E 011°13'1016.5
2018-Jul-20 01:56N 42°09' E 011°01'819.1
2018-Jul-20 01:30N 42°11' E 010°51'1019.7
2018-Jul-20 00:59N 42°18' E 010°40'919.7
2018-Jul-20 00:30N 42°25' E 010°31'1019.7
2018-Jul-20 00:00N 42°31' E 010°21'1219.5
2018-Jul-19 23:22N 42°39' E 010°08'719.3
2018-Jul-19 23:00N 42°43' E 009°60'919.0
2018-Jul-19 22:30N 42°46' E 009°48'918.6
2018-Jul-19 22:00N 42°53' E 009°39'1019.4
2018-Jul-19 21:30N 43°02' E 009°35'917.9
2018-Jul-19 21:00N 43°09' E 009°27'1122.0
2018-Jul-19 20:30N 43°12' E 009°12'1121.8
2018-Jul-19 20:00N 43°15' E 008°58'1121.6
2018-Jul-19 19:30N 43°18' E 008°44'1121.5
2018-Jul-19 19:00N 43°22' E 008°30'1121.4
2018-Jul-19 18:29N 43°25' E 008°15'1021.1
2018-Jul-19 18:00N 43°29' E 008°02'1021.0
2018-Jul-19 17:30N 43°32' E 007°48'1020.9
2018-Jul-19 17:00N 43°35' E 007°35'1020.0
2018-Jul-19 16:30N 43°39' E 007°22'3 0.3
2018-Jul-19 06:16N 43°41' E 007°19'2 8.7
2018-Jul-19 06:00N 43°39' E 007°18'1019.5
2018-Jul-19 05:30N 43°30' E 007°14'1020.7
2018-Jul-19 05:00N 43°20' E 007°08'1020.9
2018-Jul-19 04:30N 43°10' E 007°03'2120.7
2018-Jul-19 03:29N 42°53' E 006°47'2321.4
2018-Jul-19 02:26N 42°38' E 006°24'6521.7
2018-Jul-18 23:25N 41°56' E 005°16'921.6
2018-Jul-18 23:00N 41°50' E 005°07'1121.5
2018-Jul-18 22:30N 41°43' E 004°56'1121.3
2018-Jul-18 22:00N 41°37' E 004°45'1121.3
2018-Jul-18 21:29N 41°29' E 004°34'1021.2
2018-Jul-18 21:00N 41°23' E 004°23'1121.1
2018-Jul-18 20:28N 41°15' E 004°12'1021.2
2018-Jul-18 20:00N 41°09' E 004°02'1221.2
2018-Jul-18 19:26N 41°02' E 003°49'1021.4
2018-Jul-18 18:57N 40°56' E 003°38'2921.4
2018-Jul-18 17:35N 40°36' E 003°09'321.5
2018-Jul-18 17:26N 40°34' E 003°06'2121.4
2018-Jul-18 16:26N 40°20' E 002°45'3521.1
2018-Jul-18 14:46N 40°00' E 002°07'5 3.3
2018-Jul-18 13:06N 39°57' E 002°12'815.3
2018-Jul-18 12:34N 39°53' E 002°02'119.1
2018-Jul-18 12:30N 39°52' E 002°01'2319.4
2018-Jul-18 11:19N 39°37' E 001°39'34619.9
2018-Jul-17 17:55N 36°09' W 004°11'1023.7
2018-Jul-17 17:30N 36°08' W 004°23'3822.9
2018-Jul-17 15:51N 36°03' W 005°10'720.2
2018-Jul-17 15:30N 36°04' W 005°18'611.2
2018-Jul-17 15:00N 36°09' W 005°22'0 0.5
2018-Jul-17 14:14N 36°09' W 005°22'0 0.0
2018-Jul-17 13:47N 36°09' W 005°22'0 0.0
2018-Jul-17 13:30N 36°09' W 005°22'0 0.0
2018-Jul-17 12:59N 36°09' W 005°22'0 0.0
2018-Jul-17 12:30N 36°09' W 005°22'0 0.0
2018-Jul-17 12:00N 36°09' W 005°22'0 0.0
2018-Jul-17 11:30N 36°09' W 005°22'0 0.0
2018-Jul-17 10:48N 36°09' W 005°22'0 0.0
2018-Jul-17 10:30N 36°09' W 005°22'0 0.0
2018-Jul-17 10:00N 36°09' W 005°22'0 0.0
2018-Jul-17 09:30N 36°09' W 005°22'0 0.0
2018-Jul-17 09:00N 36°09' W 005°22'0 0.0
2018-Jul-17 08:30N 36°09' W 005°22'16716.4
2018-Jul-16 22:21N 36°26' W 008°48'719.5
2018-Jul-16 22:00N 36°28' W 008°56'1019.5
2018-Jul-16 21:30N 36°31' W 009°07'1019.1
2018-Jul-16 21:00N 36°35' W 009°18'1220.2
2018-Jul-16 20:24N 36°43' W 009°29'718.9
2018-Jul-16 20:00N 36°50' W 009°33'1019.7
2018-Jul-16 19:30N 36°60' W 009°35'1019.3
2018-Jul-16 19:00N 37°09' W 009°38'1019.4
2018-Jul-16 18:30N 37°18' W 009°41'1019.4
2018-Jul-16 17:58N 37°28' W 009°45'919.1
2018-Jul-16 17:30N 37°36' W 009°49'1019.9
2018-Jul-16 17:00N 37°46' W 009°53'1020.1
2018-Jul-16 16:30N 37°56' W 009°55'1019.7
2018-Jul-16 16:00N 38°05' W 009°58'1019.6
2018-Jul-16 15:31N 38°15' W 010°01'1019.6
2018-Jul-16 15:00N 38°25' W 010°03'1019.7
2018-Jul-16 14:30N 38°34' W 010°05'1019.6
2018-Jul-16 14:01N 38°44' W 010°07'1019.7
2018-Jul-16 13:30N 38°54' W 010°08'1019.3
2018-Jul-16 13:00N 39°04' W 010°08'1019.7
2018-Jul-16 12:30N 39°13' W 010°07'1019.8
2018-Jul-16 12:00N 39°23' W 010°07'47419.0
2018-Jul-15 11:05N 47°01' W 007°18'221.0
2018-Jul-15 11:00N 47°02' W 007°17'1121.4
2018-Jul-15 10:31N 47°12' W 007°10'1121.1
2018-Jul-15 10:00N 47°21' W 007°03'3622.7
2018-Jul-15 08:26N 47°53' W 006°39'1122.6
2018-Jul-15 07:57N 48°03' W 006°32'1021.7
2018-Jul-15 07:29N 48°12' W 006°25'1821.8
2018-Jul-15 06:39N 48°28' W 006°12'320.7
2018-Jul-15 06:31N 48°30' W 006°10'1020.7
2018-Jul-15 06:00N 48°39' W 006°01'1020.1
2018-Jul-15 05:30N 48°48' W 005°53'1019.6
2018-Jul-15 05:00N 48°55' W 005°44'1019.6
2018-Jul-15 04:30N 49°01' W 005°32'1019.9
2018-Jul-15 04:00N 49°06' W 005°19'1020.4
2018-Jul-15 03:31N 49°11' W 005°05'1121.0
2018-Jul-15 03:01N 49°16' W 004°51'1122.0
2018-Jul-15 02:31N 49°22' W 004°36'1122.8
2018-Jul-15 02:01N 49°27' W 004°21'1223.2
2018-Jul-15 01:30N 49°33' W 004°06'1223.5
2018-Jul-15 01:00N 49°39' W 003°50'1223.7
2018-Jul-15 00:31N 49°45' W 003°35'1223.0
2018-Jul-15 00:00N 49°50' W 003°18'1122.0
2018-Jul-14 23:31N 49°55' W 003°03'1121.0
2018-Jul-14 23:00N 49°59' W 002°48'1020.2
2018-Jul-14 22:30N 50°03' W 002°34'1019.0
2018-Jul-14 22:00N 50°07' W 002°20'918.1
2018-Jul-14 21:30N 50°11' W 002°08'917.6
2018-Jul-14 21:00N 50°15' W 001°55'917.3
2018-Jul-14 20:30N 50°19' W 001°43'917.4
2018-Jul-14 20:00N 50°23' W 001°31'917.7
2018-Jul-14 19:30N 50°28' W 001°19'917.7
2018-Jul-14 19:01N 50°31' W 001°07'917.2
2018-Jul-14 18:31N 50°38' W 000°59'510.9
2018-Jul-14 18:01N 50°43' W 001°02'918.4
2018-Jul-14 17:31N 50°46' W 001°16'5 9.5
2018-Jul-14 17:00N 50°50' W 001°19'5 9.1
2018-Jul-14 16:30N 50°53' W 001°24'1 0.8
2018-Jul-14 15:50N 50°54' W 001°25'0 0.0
2018-Jul-14 15:23N 50°54' W 001°25'0 0.0
2018-Jul-14 14:56N 50°54' W 001°25'0 0.0
2018-Jul-14 13:59N 50°54' W 001°25'0 0.0
2018-Jul-14 13:20N 50°54' W 001°25'0 0.0
2018-Jul-14 12:59N 50°54' W 001°25'0 0.0
2018-Jul-14 12:29N 50°54' W 001°25'0 0.0
2018-Jul-14 11:53N 50°54' W 001°25'0 0.0
2018-Jul-14 11:20N 50°54' W 001°25'0 0.0
2018-Jul-14 10:59N 50°54' W 001°25'0 0.0
2018-Jul-14 10:26N 50°54' W 001°25'0 0.0
2018-Jul-14 09:59N 50°54' W 001°25'0 0.0
2018-Jul-14 09:26N 50°54' W 001°25'0 0.0
2018-Jul-14 08:56N 50°54' W 001°25'0 0.0
2018-Jul-14 08:26N 50°54' W 001°25'0 0.0
2018-Jul-14 07:59N 50°54' W 001°25'0 0.0
2018-Jul-14 07:29N 50°54' W 001°25'0 0.0
2018-Jul-14 06:59N 50°54' W 001°25'0 0.0
2018-Jul-14 06:29N 50°54' W 001°25'0 0.0
2018-Jul-14 05:59N 50°54' W 001°25'0 0.0
2018-Jul-14 05:29N 50°54' W 001°25'0 0.0
2018-Jul-14 04:59N 50°54' W 001°25'0 0.0
2018-Jul-14 04:29N 50°54' W 001°25'0 0.6
2018-Jul-14 04:00N 50°54' W 001°25'2 4.4
2018-Jul-14 03:30N 50°52' W 001°22'510.0
2018-Jul-14 03:00N 50°48' W 001°18'510.0
2018-Jul-14 02:30N 50°46' W 001°11'917.9
2018-Jul-14 02:00N 50°42' W 000°58'611.8
2018-Jul-14 01:30N 50°36' W 000°59'715.0
2018-Jul-14 01:00N 50°31' W 001°08'815.1
2018-Jul-14 00:30N 50°27' W 001°18'815.9
2018-Jul-14 00:00N 50°23' W 001°29'916.9
2018-Jul-13 23:30N 50°19' W 001°40'816.9
2018-Jul-13 23:01N 50°13' W 001°49'816.7
2018-Jul-13 22:30N 50°08' W 001°60'1318.3
2018-Jul-13 21:46N 49°59' W 002°16'720.6
2018-Jul-13 21:25N 49°56' W 002°27'920.8
2018-Jul-13 21:00N 49°54' W 002°40'1020.9
2018-Jul-13 20:31N 49°51' W 002°55'1120.9
2018-Jul-13 19:58N 49°45' W 003°10'1020.7
2018-Jul-13 19:30N 49°40' W 003°22'1020.5
2018-Jul-13 19:00N 49°35' W 003°36'1120.5
2018-Jul-13 18:28N 49°29' W 003°51'4420.7
2018-Jul-13 16:19N 49°07' W 004°49'720.8
2018-Jul-13 15:58N 49°03' W 004°59'1020.4
2018-Jul-13 15:30N 48°58' W 005°11'1020.4
2018-Jul-13 15:00N 48°53' W 005°24'4819.7
2018-Jul-13 12:34N 48°12' W 006°03'36918.9
2018-Jul-12 17:03N 42°29' W 009°19'219.1
2018-Jul-12 16:55N 42°28' W 009°16'819.3
2018-Jul-12 16:30N 42°23' W 009°07'1019.3
2018-Jul-12 16:00N 42°17' W 008°57'713.1
2018-Jul-12 15:30N 42°14' W 008°49'4 0.4
2018-Jul-12 05:29N 42°15' W 008°44'3 6.3
2018-Jul-12 05:00N 42°14' W 008°48'714.7
2018-Jul-12 04:30N 42°09' W 008°55'1116.8
2018-Jul-12 03:52N 42°01' W 009°05'  
Track history (hours):
 
Tides and Currents Weather Stations Pressure Air Temp Water Temp Dewpoint Dewpoint Depression Visibility Wind Speed Wind Dir Waves Ship Positions

Independence of the Seas

Last reported at 2018-Jul-22 01:22 UTC. Time now 2018-Jul-22 03:22 UTC.
Position N 42°55' E 007°04'.

; draft 9 m.

Type: Passenger vessel. MMSI: 309374000.

Date/timePositionNaut miles runAvg speedWind from/ knotsBaromVisibWave heightAir tempDewpointWater temp
2018-Jul-22 01:22N 42°55' E 007°04'719.3
2018-Jul-22 01:01N 42°56' E 007°13'1519.1
2018-Jul-22 00:13N 42°58' E 007°34'2218.8
2018-Jul-21 23:03N 43°04' E 008°03'818.7
2018-Jul-21 22:37N 43°07' E 008°13'218.6
2018-Jul-21 22:29N 43°07' E 008°16'1618.8
2018-Jul-21 21:39N 43°12' E 008°37'318.9
2018-Jul-21 21:30N 43°13' E 008°40'918.7
2018-Jul-21 21:01N 43°17' E 008°52'918.8
2018-Jul-21 20:31N 43°20' E 009°04'918.5
2018-Jul-21 20:00N 43°23' E 009°16'918.7
2018-Jul-21 19:31N 43°26' E 009°28'918.5
2018-Jul-21 19:01N 43°29' E 009°40'918.7
2018-Jul-21 18:30N 43°32' E 009°53'918.1
2018-Jul-21 18:00N 43°30' E 010°05'815.2
2018-Jul-21 17:30N 43°32' E 010°15'2 4.4
2018-Jul-21 16:59N 43°33' E 010°18'0 0.0
2018-Jul-21 16:17N 43°33' E 010°18'0 0.0
2018-Jul-21 15:35N 43°33' E 010°18'0 0.0
2018-Jul-21 15:29N 43°33' E 010°18'0 0.0
2018-Jul-21 14:59N 43°33' E 010°18'0 0.0
2018-Jul-21 14:29N 43°33' E 010°18'0 0.0
2018-Jul-21 13:53N 43°33' E 010°18'0 0.0
2018-Jul-21 13:29N 43°33' E 010°18'0 0.0
2018-Jul-21 12:59N 43°33' E 010°18'0 0.0
2018-Jul-21 12:26N 43°33' E 010°18'0 0.0
2018-Jul-21 11:59N 43°33' E 010°18'0 0.0
2018-Jul-21 11:26N 43°33' E 010°18'0 0.0
2018-Jul-21 10:59N 43°33' E 010°18'0 0.0
2018-Jul-21 10:29N 43°33' E 010°18'0 0.0
2018-Jul-21 09:59N 43°33' E 010°18'0 0.0
2018-Jul-21 09:29N 43°33' E 010°18'0 0.0
2018-Jul-21 08:59N 43°33' E 010°18'0 0.0
2018-Jul-21 08:29N 43°33' E 010°18'0 0.0
2018-Jul-21 07:59N 43°33' E 010°18'0 0.0
2018-Jul-21 07:29N 43°33' E 010°18'0 0.0
2018-Jul-21 06:56N 43°33' E 010°18'0 0.0
2018-Jul-21 06:29N 43°33' E 010°18'0 0.0
2018-Jul-21 05:59N 43°33' E 010°18'0 0.0
2018-Jul-21 05:29N 43°33' E 010°18'0 0.0
2018-Jul-21 04:59N 43°33' E 010°18'0 0.3
2018-Jul-21 04:30N 43°33' E 010°18'3 5.0
2018-Jul-21 04:00N 43°31' E 010°15'611.0
2018-Jul-21 03:30N 43°26' E 010°13'612.8
2018-Jul-21 03:00N 43°20' E 010°11'713.1
2018-Jul-21 02:30N 43°14' E 010°09'713.7
2018-Jul-21 02:00N 43°07' E 010°07'815.4
2018-Jul-21 01:30N 42°59' E 010°05'1215.5
2018-Jul-21 00:43N 42°47' E 010°01'715.4
2018-Jul-21 00:17N 42°42' E 010°06'1015.2
2018-Jul-20 23:39N 42°34' E 010°15'515.6
2018-Jul-20 23:21N 42°31' E 010°19'615.4
2018-Jul-20 22:56N 42°26' E 010°24'614.8
2018-Jul-20 22:30N 42°20' E 010°28'815.2
2018-Jul-20 22:00N 42°13' E 010°30'715.0
2018-Jul-20 21:31N 42°05' E 010°31'714.5
2018-Jul-20 21:00N 42°01' E 010°39'815.4
2018-Jul-20 20:30N 41°59' E 010°49'815.0
2018-Jul-20 19:59N 41°58' E 010°60'714.6
2018-Jul-20 19:30N 41°56' E 011°09'714.1
2018-Jul-20 19:00N 41°56' E 011°18'714.4
2018-Jul-20 18:30N 41°59' E 011°27'714.8
2018-Jul-20 18:00N 42°03' E 011°35'2 0.1
2018-Jul-20 03:21N 42°04' E 011°33'718.9
2018-Jul-20 03:00N 42°05' E 011°24'816.6
2018-Jul-20 02:30N 42°06' E 011°13'1016.5
2018-Jul-20 01:56N 42°09' E 011°01'819.1
2018-Jul-20 01:30N 42°11' E 010°51'1019.7
2018-Jul-20 00:59N 42°18' E 010°40'919.7
2018-Jul-20 00:30N 42°25' E 010°31'1019.7
2018-Jul-20 00:00N 42°31' E 010°21'1219.5
2018-Jul-19 23:22N 42°39' E 010°08'719.3
2018-Jul-19 23:00N 42°43' E 009°60'919.0
2018-Jul-19 22:30N 42°46' E 009°48'918.6
2018-Jul-19 22:00N 42°53' E 009°39'1019.4
2018-Jul-19 21:30N 43°02' E 009°35'917.9
2018-Jul-19 21:00N 43°09' E 009°27'1122.0
2018-Jul-19 20:30N 43°12' E 009°12'1121.8
2018-Jul-19 20:00N 43°15' E 008°58'1121.6
2018-Jul-19 19:30N 43°18' E 008°44'1121.5
2018-Jul-19 19:00N 43°22' E 008°30'1121.4
2018-Jul-19 18:29N 43°25' E 008°15'1021.1
2018-Jul-19 18:00N 43°29' E 008°02'1021.0
2018-Jul-19 17:30N 43°32' E 007°48'1020.9
2018-Jul-19 17:00N 43°35' E 007°35'1020.0
2018-Jul-19 16:30N 43°39' E 007°22'3 0.3
2018-Jul-19 06:16N 43°41' E 007°19'2 8.7
2018-Jul-19 06:00N 43°39' E 007°18'1019.5
2018-Jul-19 05:30N 43°30' E 007°14'1020.7
2018-Jul-19 05:00N 43°20' E 007°08'1020.9
2018-Jul-19 04:30N 43°10' E 007°03'2120.7
2018-Jul-19 03:29N 42°53' E 006°47'2321.4
2018-Jul-19 02:26N 42°38' E 006°24'6521.7
2018-Jul-18 23:25N 41°56' E 005°16'921.6
2018-Jul-18 23:00N 41°50' E 005°07'1121.5
2018-Jul-18 22:30N 41°43' E 004°56'1121.3
2018-Jul-18 22:00N 41°37' E 004°45'1121.3
2018-Jul-18 21:29N 41°29' E 004°34'1021.2
2018-Jul-18 21:00N 41°23' E 004°23'1121.1
2018-Jul-18 20:28N 41°15' E 004°12'1021.2
2018-Jul-18 20:00N 41°09' E 004°02'1221.2
2018-Jul-18 19:26N 41°02' E 003°49'1021.4
2018-Jul-18 18:57N 40°56' E 003°38'2921.4
2018-Jul-18 17:35N 40°36' E 003°09'321.5
2018-Jul-18 17:26N 40°34' E 003°06'2121.4
2018-Jul-18 16:26N 40°20' E 002°45'3521.1
2018-Jul-18 14:46N 40°00' E 002°07'5 3.3
2018-Jul-18 13:06N 39°57' E 002°12'815.3
2018-Jul-18 12:34N 39°53' E 002°02'119.1
2018-Jul-18 12:30N 39°52' E 002°01'2319.4
2018-Jul-18 11:19N 39°37' E 001°39'34619.9
2018-Jul-17 17:55N 36°09' W 004°11'1023.7
2018-Jul-17 17:30N 36°08' W 004°23'3822.9
2018-Jul-17 15:51N 36°03' W 005°10'720.2
2018-Jul-17 15:30N 36°04' W 005°18'611.2
2018-Jul-17 15:00N 36°09' W 005°22'0 0.5
2018-Jul-17 14:14N 36°09' W 005°22'0 0.0
2018-Jul-17 13:47N 36°09' W 005°22'0 0.0
2018-Jul-17 13:30N 36°09' W 005°22'0 0.0
2018-Jul-17 12:59N 36°09' W 005°22'0 0.0
2018-Jul-17 12:30N 36°09' W 005°22'0 0.0
2018-Jul-17 12:00N 36°09' W 005°22'0 0.0
2018-Jul-17 11:30N 36°09' W 005°22'0 0.0
2018-Jul-17 10:48N 36°09' W 005°22'0 0.0
2018-Jul-17 10:30N 36°09' W 005°22'0 0.0
2018-Jul-17 10:00N 36°09' W 005°22'0 0.0
2018-Jul-17 09:30N 36°09' W 005°22'0 0.0
2018-Jul-17 09:00N 36°09' W 005°22'0 0.0
2018-Jul-17 08:30N 36°09' W 005°22'16716.4
2018-Jul-16 22:21N 36°26' W 008°48'719.5
2018-Jul-16 22:00N 36°28' W 008°56'1019.5
2018-Jul-16 21:30N 36°31' W 009°07'1019.1
2018-Jul-16 21:00N 36°35' W 009°18'1220.2
2018-Jul-16 20:24N 36°43' W 009°29'718.9
2018-Jul-16 20:00N 36°50' W 009°33'1019.7
2018-Jul-16 19:30N 36°60' W 009°35'1019.3
2018-Jul-16 19:00N 37°09' W 009°38'1019.4
2018-Jul-16 18:30N 37°18' W 009°41'1019.4
2018-Jul-16 17:58N 37°28' W 009°45'919.1
2018-Jul-16 17:30N 37°36' W 009°49'1019.9
2018-Jul-16 17:00N 37°46' W 009°53'1020.1
2018-Jul-16 16:30N 37°56' W 009°55'1019.7
2018-Jul-16 16:00N 38°05' W 009°58'1019.6
2018-Jul-16 15:31N 38°15' W 010°01'1019.6
2018-Jul-16 15:00N 38°25' W 010°03'1019.7
2018-Jul-16 14:30N 38°34' W 010°05'1019.6
2018-Jul-16 14:01N 38°44' W 010°07'1019.7
2018-Jul-16 13:30N 38°54' W 010°08'1019.3
2018-Jul-16 13:00N 39°04' W 010°08'1019.7
2018-Jul-16 12:30N 39°13' W 010°07'1019.8
2018-Jul-16 12:00N 39°23' W 010°07'47419.0
2018-Jul-15 11:05N 47°01' W 007°18'221.0
2018-Jul-15 11:00N 47°02' W 007°17'1121.4
2018-Jul-15 10:31N 47°12' W 007°10'1121.1
2018-Jul-15 10:00N 47°21' W 007°03'3622.7
2018-Jul-15 08:26N 47°53' W 006°39'1122.6
2018-Jul-15 07:57N 48°03' W 006°32'1021.7
2018-Jul-15 07:29N 48°12' W 006°25'1821.8
2018-Jul-15 06:39N 48°28' W 006°12'320.7
2018-Jul-15 06:31N 48°30' W 006°10'1020.7
2018-Jul-15 06:00N 48°39' W 006°01'1020.1
2018-Jul-15 05:30N 48°48' W 005°53'1019.6
2018-Jul-15 05:00N 48°55' W 005°44'1019.6
2018-Jul-15 04:30N 49°01' W 005°32'1019.9
2018-Jul-15 04:00N 49°06' W 005°19'1020.4
2018-Jul-15 03:31N 49°11' W 005°05'1121.0
2018-Jul-15 03:01N 49°16' W 004°51'1122.0
2018-Jul-15 02:31N 49°22' W 004°36'1122.8
2018-Jul-15 02:01N 49°27' W 004°21'1223.2
2018-Jul-15 01:30N 49°33' W 004°06'1223.5
2018-Jul-15 01:00N 49°39' W 003°50'1223.7
2018-Jul-15 00:31N 49°45' W 003°35'1223.0
2018-Jul-15 00:00N 49°50' W 003°18'1122.0
2018-Jul-14 23:31N 49°55' W 003°03'1121.0
2018-Jul-14 23:00N 49°59' W 002°48'1020.2
2018-Jul-14 22:30N 50°03' W 002°34'1019.0
2018-Jul-14 22:00N 50°07' W 002°20'918.1
2018-Jul-14 21:30N 50°11' W 002°08'917.6
2018-Jul-14 21:00N 50°15' W 001°55'917.3
2018-Jul-14 20:30N 50°19' W 001°43'917.4
2018-Jul-14 20:00N 50°23' W 001°31'917.7
2018-Jul-14 19:30N 50°28' W 001°19'917.7
2018-Jul-14 19:01N 50°31' W 001°07'917.2
2018-Jul-14 18:31N 50°38' W 000°59'510.9
2018-Jul-14 18:01N 50°43' W 001°02'918.4
2018-Jul-14 17:31N 50°46' W 001°16'5 9.5
2018-Jul-14 17:00N 50°50' W 001°19'5 9.1
2018-Jul-14 16:30N 50°53' W 001°24'1 0.8
2018-Jul-14 15:50N 50°54' W 001°25'0 0.0
2018-Jul-14 15:23N 50°54' W 001°25'0 0.0
2018-Jul-14 14:56N 50°54' W 001°25'0 0.0
2018-Jul-14 13:59N 50°54' W 001°25'0 0.0
2018-Jul-14 13:20N 50°54' W 001°25'0 0.0
2018-Jul-14 12:59N 50°54' W 001°25'0 0.0
2018-Jul-14 12:29N 50°54' W 001°25'0 0.0
2018-Jul-14 11:53N 50°54' W 001°25'0 0.0
2018-Jul-14 11:20N 50°54' W 001°25'0 0.0
2018-Jul-14 10:59N 50°54' W 001°25'0 0.0
2018-Jul-14 10:26N 50°54' W 001°25'0 0.0
2018-Jul-14 09:59N 50°54' W 001°25'0 0.0
2018-Jul-14 09:26N 50°54' W 001°25'0 0.0
2018-Jul-14 08:56N 50°54' W 001°25'0 0.0
2018-Jul-14 08:26N 50°54' W 001°25'0 0.0
2018-Jul-14 07:59N 50°54' W 001°25'0 0.0
2018-Jul-14 07:29N 50°54' W 001°25'0 0.0
2018-Jul-14 06:59N 50°54' W 001°25'0 0.0
2018-Jul-14 06:29N 50°54' W 001°25'0 0.0
2018-Jul-14 05:59N 50°54' W 001°25'0 0.0
2018-Jul-14 05:29N 50°54' W 001°25'0 0.0
2018-Jul-14 04:59N 50°54' W 001°25'0 0.0
2018-Jul-14 04:29N 50°54' W 001°25'0 0.6
2018-Jul-14 04:00N 50°54' W 001°25'2 4.4
2018-Jul-14 03:30N 50°52' W 001°22'510.0
2018-Jul-14 03:00N 50°48' W 001°18'510.0
2018-Jul-14 02:30N 50°46' W 001°11'917.9
2018-Jul-14 02:00N 50°42' W 000°58'611.8
2018-Jul-14 01:30N 50°36' W 000°59'715.0
2018-Jul-14 01:00N 50°31' W 001°08'815.1
2018-Jul-14 00:30N 50°27' W 001°18'815.9
2018-Jul-14 00:00N 50°23' W 001°29'916.9
2018-Jul-13 23:30N 50°19' W 001°40'816.9
2018-Jul-13 23:01N 50°13' W 001°49'816.7
2018-Jul-13 22:30N 50°08' W 001°60'1318.3
2018-Jul-13 21:46N 49°59' W 002°16'720.6
2018-Jul-13 21:25N 49°56' W 002°27'920.8
2018-Jul-13 21:00N 49°54' W 002°40'1020.9
2018-Jul-13 20:31N 49°51' W 002°55'1120.9
2018-Jul-13 19:58N 49°45' W 003°10'1020.7
2018-Jul-13 19:30N 49°40' W 003°22'1020.5
2018-Jul-13 19:00N 49°35' W 003°36'1120.5
2018-Jul-13 18:28N 49°29' W 003°51'4420.7
2018-Jul-13 16:19N 49°07' W 004°49'720.8
2018-Jul-13 15:58N 49°03' W 004°59'1020.4
2018-Jul-13 15:30N 48°58' W 005°11'1020.4
2018-Jul-13 15:00N 48°53' W 005°24'4819.7
2018-Jul-13 12:34N 48°12' W 006°03'36918.9
2018-Jul-12 17:03N 42°29' W 009°19'219.1
2018-Jul-12 16:55N 42°28' W 009°16'819.3
2018-Jul-12 16:30N 42°23' W 009°07'1019.3
2018-Jul-12 16:00N 42°17' W 008°57'713.1
2018-Jul-12 15:30N 42°14' W 008°49'4 0.4
2018-Jul-12 05:29N 42°15' W 008°44'3 6.3
2018-Jul-12 05:00N 42°14' W 008°48'714.7
2018-Jul-12 04:30N 42°09' W 008°55'1116.8
2018-Jul-12 03:52N 42°01' W 009°05'  

Dump ship's entire track history